Time;durP1;ratioP1;P1;durP2;ratioP2;P2;SDS_P1;SDS_P2;PMS_P1;PMS_P2;Temp;Humidity;BMP_temperature;BMP_pressure;BME280_temperature;BME280_humidity;BME280_pressure;Samples;Min_cycle;Max_cycle;Signal;HPM_P1;HPM_P2
2022/10/31 00:01:26;;;;;;;3.15;2.47;;;16.20;96.70;;;;;;4955730;28;20042;-72
2022/10/31 00:03:54;;;;;;;8.40;3.03;;;16.20;96.70;;;;;;4932023;29;20105;-71
2022/10/31 00:06:22;;;;;;;5.03;2.90;;;16.10;96.70;;;;;;4929805;28;20055;-72
2022/10/31 00:08:53;;;;;;;5.43;2.80;;;16.10;96.70;;;;;;4929022;28;20576;-72
2022/10/31 00:11:21;;;;;;;6.60;2.88;;;16.10;96.70;;;;;;4921566;28;20078;-72
2022/10/31 00:13:51;;;;;;;5.68;2.83;;;16.10;96.70;;;;;;4930421;28;20069;-71
2022/10/31 00:16:21;;;;;;;6.75;2.70;;;16.00;96.70;;;;;;4975842;28;20089;-71
2022/10/31 00:18:49;;;;;;;6.53;2.78;;;16.00;96.70;;;;;;4951619;28;20642;-72
2022/10/31 00:21:17;;;;;;;6.78;2.85;;;16.00;96.70;;;;;;4927572;28;20050;-72
2022/10/31 00:23:45;;;;;;;8.07;2.67;;;15.90;96.70;;;;;;4947416;28;20051;-72
2022/10/31 00:26:13;;;;;;;4.97;2.47;;;15.90;96.70;;;;;;4945352;28;20134;-72
2022/10/31 00:28:42;;;;;;;5.70;2.95;;;16.00;96.70;;;;;;4927756;29;20078;-71
2022/10/31 00:31:12;;;;;;;5.72;3.30;;;16.10;96.70;;;;;;4928166;28;20106;-71
2022/10/31 00:33:41;;;;;;;6.32;3.42;;;15.90;96.70;;;;;;4913980;29;20055;-72
2022/10/31 00:36:11;;;;;;;6.97;3.10;;;15.70;96.70;;;;;;4912126;28;20047;-72
2022/10/31 00:38:40;;;;;;;6.43;3.80;;;15.70;96.70;;;;;;4932674;28;20054;-71
2022/10/31 00:41:08;;;;;;;8.80;4.13;;;15.90;96.70;;;;;;4928229;29;20070;-71
2022/10/31 00:43:36;;;;;;;6.70;3.92;;;15.90;96.70;;;;;;4935131;29;20574;-71
2022/10/31 00:46:03;;;;;;;6.82;3.47;;;15.90;96.70;;;;;;4927929;29;20051;-71
2022/10/31 00:48:33;;;;;;;7.40;3.80;;;15.90;96.70;;;;;;4945015;28;20134;-71
2022/10/31 00:51:00;;;;;;;7.28;4.03;;;16.00;96.70;;;;;;4906765;28;20159;-72
2022/10/31 00:53:28;;;;;;;7.00;3.90;;;16.00;96.70;;;;;;4931966;28;20089;-72
2022/10/31 00:55:56;;;;;;;5.53;3.50;;;15.90;96.70;;;;;;4969581;28;20098;-72
2022/10/31 00:58:24;;;;;;;6.43;3.60;;;15.80;96.70;;;;;;4917457;29;20098;-72
2022/10/31 01:00:55;;;;;;;6.43;4.25;;;15.60;96.70;;;;;;4927515;29;20505;-72
2022/10/31 01:03:24;;;;;;;6.32;3.80;;;15.70;96.70;;;;;;4929390;28;20051;-72
2022/10/31 01:06:01;;;;;;;8.32;3.67;;;15.60;96.70;;;;;;4936898;28;20047;-73
2022/10/31 01:08:32;;;;;;;10.43;4.15;;;15.60;96.70;;;;;;4929600;29;20509;-72
2022/10/31 01:11:07;;;;;;;5.53;3.58;;;15.50;96.70;;;;;;4927516;29;20734;-72
2022/10/31 01:13:36;;;;;;;7.50;3.88;;;15.40;96.70;;;;;;4945281;28;20047;-72
2022/10/31 01:16:05;;;;;;;6.25;4.07;;;15.30;96.70;;;;;;4944832;28;20585;-72
2022/10/31 01:18:33;;;;;;;7.88;3.45;;;15.30;96.70;;;;;;4928130;29;20141;-72
2022/10/31 01:21:05;;;;;;;6.68;3.70;;;15.40;96.70;;;;;;4944862;28;20039;-72
2022/10/31 01:23:33;;;;;;;7.63;3.65;;;15.50;96.70;;;;;;4927601;29;20055;-72
2022/10/31 01:26:10;;;;;;;6.60;3.65;;;15.50;96.70;;;;;;4955114;28;20039;-72
2022/10/31 01:28:45;;;;;;;4.18;2.80;;;15.50;96.70;;;;;;4945722;29;20632;-72
2022/10/31 01:31:15;;;;;;;3.88;2.60;;;15.40;96.70;;;;;;4947867;28;20482;-72
2022/10/31 01:33:44;;;;;;;4.55;3.03;;;15.30;96.70;;;;;;4930486;29;20043;-72
2022/10/31 01:36:16;;;;;;;6.32;3.03;;;15.40;96.70;;;;;;4932022;28;20508;-72
2022/10/31 01:38:44;;;;;;;5.38;2.58;;;15.50;96.70;;;;;;4936529;28;20143;-72
2022/10/31 01:41:14;;;;;;;7.10;2.35;;;15.50;96.70;;;;;;4916481;29;20656;-72
2022/10/31 01:43:48;;;;;;;5.25;2.30;;;15.50;96.70;;;;;;4950030;28;20549;-71
2022/10/31 01:46:20;;;;;;;3.47;2.40;;;15.40;96.70;;;;;;4949217;28;20399;-71
2022/10/31 01:48:49;;;;;;;5.35;2.42;;;15.40;96.70;;;;;;4925959;28;20046;-72
2022/10/31 01:51:23;;;;;;;6.97;3.30;;;15.50;96.70;;;;;;4931387;29;20591;-71
2022/10/31 01:53:55;;;;;;;5.43;3.00;;;15.50;96.70;;;;;;4934730;28;20070;-72
2022/10/31 01:56:23;;;;;;;4.88;3.17;;;15.40;96.70;;;;;;4943100;28;20051;-72
2022/10/31 01:58:53;;;;;;;4.93;2.53;;;15.30;96.70;;;;;;4940297;28;20387;-71
2022/10/31 02:01:21;;;;;;;4.25;2.42;;;15.20;96.70;;;;;;4931049;28;20078;-72
2022/10/31 02:03:49;;;;;;;5.65;2.90;;;15.30;96.70;;;;;;4940809;28;20382;-72
2022/10/31 02:06:27;;;;;;;7.22;3.53;;;15.40;96.70;;;;;;4951236;28;20078;-72
2022/10/31 02:08:57;;;;;;;5.28;3.30;;;15.50;96.70;;;;;;4942081;28;20056;-72
2022/10/31 02:11:25;;;;;;;8.60;3.33;;;15.40;96.70;;;;;;4954451;28;20061;-72
2022/10/31 02:13:54;;;;;;;6.65;3.05;;;15.40;96.70;;;;;;4933379;28;20584;-72
2022/10/31 02:16:22;;;;;;;6.57;3.00;;;15.30;96.70;;;;;;4945120;28;20050;-72
2022/10/31 02:18:50;;;;;;;5.40;2.78;;;15.20;96.70;;;;;;4937675;28;20042;-72
2022/10/31 02:21:29;;;;;;;4.55;3.00;;;15.20;96.70;;;;;;4948959;28;20078;-72
2022/10/31 02:24:21;;;;;;;5.47;2.83;;;15.10;96.70;;;;;;4939911;28;20486;-72
2022/10/31 02:26:59;;;;;;;7.95;3.30;;;15.20;96.70;;;;;;4943494;29;20078;-72
2022/10/31 02:29:59;;;;;;;7.00;3.08;;;15.20;96.70;;;;;;4936500;28;20102;-72
2022/10/31 02:32:40;;;;;;;5.80;3.10;;;15.20;96.70;;;;;;4933057;29;20055;-72
2022/10/31 02:35:13;;;;;;;7.95;3.75;;;15.10;96.70;;;;;;4931015;28;20047;-72
2022/10/31 02:37:49;;;;;;;7.68;3.40;;;15.10;96.70;;;;;;4930758;28;20062;-72
2022/10/31 02:40:22;;;;;;;7.30;3.03;;;15.10;96.70;;;;;;4947163;28;20051;-72
2022/10/31 02:43:17;;;;;;;5.90;2.90;;;15.00;96.70;;;;;;4930615;28;20094;-72
2022/10/31 02:45:50;;;;;;;8.80;3.40;;;15.10;96.70;;;;;;4929351;29;20043;-72
2022/10/31 02:48:23;;;;;;;6.45;3.53;;;15.00;96.70;;;;;;4953873;28;20043;-73
2022/10/31 02:50:55;;;;;;;5.88;3.13;;;15.00;96.70;;;;;;4943135;29;20154;-72
2022/10/31 02:53:23;;;;;;;7.80;2.80;;;14.90;96.70;;;;;;4929921;28;20058;-72
2022/10/31 02:56:01;;;;;;;6.22;3.08;;;14.80;96.70;;;;;;4928802;28;20654;-72
2022/10/31 02:58:33;;;;;;;7.03;2.80;;;14.70;96.70;;;;;;4937216;28;20524;-72
2022/10/31 03:01:26;;;;;;;6.70;3.05;;;14.80;96.70;;;;;;4939092;29;20052;-72
2022/10/31 03:04:14;;;;;;;7.22;3.10;;;14.70;96.70;;;;;;4975666;28;20046;-72
2022/10/31 03:06:49;;;;;;;4.95;2.67;;;14.70;96.70;;;;;;4936177;28;20047;-73
2022/10/31 03:09:24;;;;;;;5.67;3.00;;;14.60;96.70;;;;;;4921812;28;20058;-72
2022/10/31 03:12:03;;;;;;;5.85;2.90;;;14.60;96.70;;;;;;4929886;28;20070;-73
2022/10/31 03:14:41;;;;;;;4.68;2.80;;;14.70;96.70;;;;;;4960950;28;20059;-72
2022/10/31 03:17:14;;;;;;;8.27;3.58;;;14.60;96.70;;;;;;4953515;28;20052;-72
2022/10/31 03:19:47;;;;;;;5.47;2.83;;;14.60;96.70;;;;;;4928527;28;20395;-72
2022/10/31 03:22:20;;;;;;;6.20;3.42;;;14.60;96.70;;;;;;4929723;29;20075;-72
2022/10/31 03:24:49;;;;;;;5.40;2.78;;;14.60;96.70;;;;;;4945423;28;20039;-72
2022/10/31 03:27:20;;;;;;;5.43;2.97;;;14.40;96.70;;;;;;4929050;28;20063;-72
2022/10/31 03:29:51;;;;;;;5.82;2.63;;;14.30;96.70;;;;;;4934188;28;20059;-72
2022/10/31 03:32:23;;;;;;;4.95;2.90;;;14.20;96.70;;;;;;4952107;28;20050;-72
2022/10/31 03:34:57;;;;;;;6.22;2.53;;;14.30;96.70;;;;;;4957051;28;20051;-72
2022/10/31 03:37:29;;;;;;;4.32;2.88;;;14.30;96.70;;;;;;4933683;28;20047;-72
2022/10/31 03:39:59;;;;;;;5.75;3.05;;;14.20;96.70;;;;;;4933375;28;20469;-73
2022/10/31 03:42:31;;;;;;;5.90;3.03;;;14.30;96.70;;;;;;4960612;28;20082;-72
2022/10/31 03:45:03;;;;;;;4.47;2.80;;;14.40;96.70;;;;;;4938635;28;20043;-72
2022/10/31 03:47:32;;;;;;;4.07;2.78;;;14.40;96.70;;;;;;4947665;28;20141;-72
2022/10/31 03:50:01;;;;;;;6.80;3.28;;;14.40;96.70;;;;;;4933480;28;20054;-72
2022/10/31 03:52:36;;;;;;;3.83;2.80;;;14.40;96.70;;;;;;4934348;28;20055;-72
2022/10/31 03:55:10;;;;;;;4.82;2.92;;;14.40;96.70;;;;;;4936156;28;20054;-72
2022/10/31 03:57:43;;;;;;;4.35;2.80;;;14.40;96.70;;;;;;4928144;28;20053;-72
2022/10/31 04:00:14;;;;;;;5.90;2.63;;;14.40;96.70;;;;;;4946093;28;20079;-72
2022/10/31 04:02:51;;;;;;;5.68;2.92;;;14.30;96.70;;;;;;4945638;28;20591;-72
2022/10/31 04:05:21;;;;;;;6.90;2.85;;;14.30;96.70;;;;;;4943008;28;20059;-72
2022/10/31 04:07:54;;;;;;;5.72;3.22;;;14.30;96.70;;;;;;4967514;28;20169;-72
2022/10/31 04:10:24;;;;;;;8.57;3.60;;;14.30;96.70;;;;;;4931972;28;20055;-72
2022/10/31 04:13:05;;;;;;;8.82;3.63;;;14.30;96.70;;;;;;4941638;28;20054;-72
2022/10/31 04:15:42;;;;;;;9.07;3.40;;;14.40;96.70;;;;;;4953924;28;20599;-72
2022/10/31 04:18:10;;;;;;;9.68;4.15;;;14.30;96.70;;;;;;4937345;28;20051;-72
2022/10/31 04:20:41;;;;;;;10.15;4.72;;;14.40;96.70;;;;;;4928125;28;20055;-72
2022/10/31 04:23:18;;;;;;;9.20;4.32;;;14.40;96.70;;;;;;4937451;28;20099;-72
2022/10/31 04:25:46;;;;;;;6.40;3.70;;;14.40;96.70;;;;;;4930298;28;20413;-72
2022/10/31 04:28:14;;;;;;;5.60;3.03;;;14.40;96.70;;;;;;4953156;28;20044;-72
2022/10/31 04:30:43;;;;;;;5.10;3.00;;;14.30;96.70;;;;;;4922904;28;20452;-71
2022/10/31 04:33:11;;;;;;;6.95;3.08;;;14.10;96.70;;;;;;4936554;28;20568;-72
2022/10/31 04:35:40;;;;;;;5.10;2.88;;;13.90;96.70;;;;;;4960871;28;20046;-72
2022/10/31 04:38:09;;;;;;;4.10;3.03;;;13.90;96.70;;;;;;4930151;29;20055;-72
2022/10/31 04:40:38;;;;;;;5.05;3.00;;;13.80;96.70;;;;;;4937646;29;20078;-72
2022/10/31 04:43:41;;;;;;;7.72;3.00;;;13.80;96.70;;;;;;4943264;28;20057;-72
2022/10/31 04:46:09;;;;;;;5.53;2.80;;;13.70;96.70;;;;;;4938215;28;20047;-72
2022/10/31 04:48:37;;;;;;;6.28;3.13;;;13.60;96.70;;;;;;4949550;28;20039;-71
2022/10/31 04:51:08;;;;;;;4.65;2.75;;;13.60;96.70;;;;;;4911673;28;20110;-73
2022/10/31 04:53:36;;;;;;;5.28;2.90;;;13.60;96.70;;;;;;4927860;28;20051;-72
2022/10/31 04:56:23;;;;;;;6.40;3.05;;;13.70;96.70;;;;;;4948863;28;20172;-72
2022/10/31 04:58:56;;;;;;;5.20;2.75;;;13.70;96.70;;;;;;4947220;28;20043;-72
2022/10/31 05:01:26;;;;;;;4.97;2.97;;;13.70;96.70;;;;;;4938816;28;20773;-72
2022/10/31 05:03:54;;;;;;;4.88;2.47;;;13.60;96.70;;;;;;4980999;28;20608;-72
2022/10/31 05:06:24;;;;;;;6.43;3.03;;;13.60;96.70;;;;;;4940806;28;20069;-72
2022/10/31 05:08:52;;;;;;;5.13;2.60;;;13.50;96.70;;;;;;4941270;29;20085;-72
2022/10/31 05:11:20;;;;;;;4.85;2.20;;;13.60;96.70;;;;;;4930816;29;20067;-72
2022/10/31 05:13:48;;;;;;;5.88;2.67;;;13.60;96.70;;;;;;4931103;28;20162;-72
2022/10/31 05:16:35;;;;;;;5.07;2.47;;;13.70;96.70;;;;;;4950403;28;20073;-73
2022/10/31 05:19:28;;;;;;;5.35;3.58;;;13.60;96.70;;;;;;4939292;28;20523;-72
2022/10/31 05:22:18;;;;;;;6.85;2.83;;;13.50;96.70;;;;;;4899942;28;20051;-72
2022/10/31 05:24:46;;;;;;;4.63;2.83;;;13.40;96.70;;;;;;4934302;29;20063;-72
2022/10/31 05:27:14;;;;;;;6.53;3.08;;;13.50;96.70;;;;;;4931640;29;20114;-72
2022/10/31 05:29:42;;;;;;;4.78;2.60;;;13.50;96.70;;;;;;4930438;28;20055;-72
2022/10/31 05:32:10;;;;;;;5.43;2.63;;;13.60;96.70;;;;;;4949073;28;20040;-72
2022/10/31 05:34:56;;;;;;;5.45;2.78;;;13.70;96.70;;;;;;4958541;28;20528;-72
2022/10/31 05:37:52;;;;;;;5.30;2.50;;;13.80;96.70;;;;;;4933870;28;20164;-72
2022/10/31 05:40:21;;;;;;;4.80;3.25;;;13.70;96.70;;;;;;4941259;28;20054;-72
2022/10/31 05:42:51;;;;;;;4.18;2.70;;;13.70;96.70;;;;;;4947532;28;20043;-72
2022/10/31 05:45:22;;;;;;;4.80;2.63;;;13.70;96.70;;;;;;4913604;29;20043;-72
2022/10/31 05:47:59;;;;;;;5.22;2.58;;;13.60;96.70;;;;;;4931370;28;20059;-72
2022/10/31 05:50:54;;;;;;;4.53;2.78;;;13.70;96.70;;;;;;4932086;28;20134;-72
2022/10/31 05:53:24;;;;;;;4.45;2.58;;;13.70;96.70;;;;;;4937929;29;20043;-72
2022/10/31 05:55:52;;;;;;;7.72;2.65;;;13.70;96.70;;;;;;4930390;28;20607;-72
2022/10/31 05:58:22;;;;;;;5.28;3.17;;;13.70;96.70;;;;;;4935975;28;20051;-73
2022/10/31 06:01:03;;;;;;;10.43;3.13;;;13.80;96.70;;;;;;4933253;29;20062;-72
2022/10/31 06:03:31;;;;;;;6.43;2.40;;;13.80;96.70;;;;;;4916458;29;20050;-72
2022/10/31 06:06:01;;;;;;;5.65;2.92;;;13.80;96.70;;;;;;4948148;28;20039;-72
2022/10/31 06:08:42;;;;;;;6.40;2.83;;;13.80;96.70;;;;;;4918440;29;20047;-72
2022/10/31 06:11:15;;;;;;;5.95;3.00;;;13.70;96.70;;;;;;4947603;28;20051;-72
2022/10/31 06:14:01;;;;;;;9.13;3.50;;;13.60;96.70;;;;;;4932895;28;20051;-72
2022/10/31 06:16:56;;;;;;;4.22;2.28;;;13.60;96.70;;;;;;4932417;28;20071;-72
2022/10/31 06:19:55;;;;;;;6.07;2.80;;;13.50;96.70;;;;;;4921711;28;20055;-72
2022/10/31 06:22:26;;;;;;;4.22;2.17;;;13.60;96.70;;;;;;4914436;29;20307;-72
2022/10/31 06:24:56;;;;;;;6.50;2.97;;;13.60;96.70;;;;;;4930152;29;20063;-71
2022/10/31 06:27:31;;;;;;;3.77;2.27;;;13.70;96.70;;;;;;4929100;28;20123;-73
2022/10/31 06:30:06;;;;;;;5.25;2.83;;;13.80;96.70;;;;;;4908812;28;20883;-72
2022/10/31 06:32:36;;;;;;;4.47;2.42;;;13.80;96.70;;;;;;4933071;29;20070;-72
2022/10/31 06:35:07;;;;;;;6.25;2.80;;;13.80;96.70;;;;;;4943896;28;20057;-73
2022/10/31 06:37:36;;;;;;;6.72;2.90;;;13.60;96.70;;;;;;4938083;28;20067;-72
2022/10/31 06:40:26;;;;;;;5.07;2.88;;;13.50;96.70;;;;;;4934951;28;20059;-72
2022/10/31 06:43:29;;;;;;;4.88;2.55;;;13.70;96.70;;;;;;4924260;29;20067;-72
2022/10/31 06:46:20;;;;;;;5.13;3.30;;;13.90;96.70;;;;;;4923476;29;20134;-72
2022/10/31 06:49:05;;;;;;;5.60;2.97;;;13.90;96.70;;;;;;4911435;29;20516;-72
2022/10/31 06:51:41;;;;;;;5.35;2.92;;;13.90;96.70;;;;;;4922864;29;20166;-72
2022/10/31 06:54:09;;;;;;;7.13;2.72;;;13.90;96.70;;;;;;4925749;29;20059;-72
2022/10/31 06:56:39;;;;;;;5.57;2.80;;;13.90;96.70;;;;;;4908195;29;20051;-72
2022/10/31 06:59:08;;;;;;;5.60;2.92;;;14.00;96.70;;;;;;4925349;29;20059;-72
2022/10/31 07:01:57;;;;;;;7.00;3.17;;;13.90;96.70;;;;;;4928158;29;20063;-72
2022/10/31 07:04:26;;;;;;;7.32;3.03;;;13.90;96.70;;;;;;4926301;29;20641;-72
2022/10/31 07:06:53;;;;;;;6.82;3.17;;;13.90;96.70;;;;;;4921445;29;20046;-72
2022/10/31 07:09:21;;;;;;;5.13;2.80;;;14.00;96.70;;;;;;4925019;29;20487;-72
2022/10/31 07:11:52;;;;;;;7.82;3.28;;;14.00;96.70;;;;;;4922739;29;20044;-72
2022/10/31 07:14:20;;;;;;;4.28;2.70;;;14.10;96.70;;;;;;4915361;29;20059;-72
2022/10/31 07:16:50;;;;;;;9.88;4.18;;;14.20;96.70;;;;;;4925175;29;20103;-72
2022/10/31 07:19:23;;;;;;;5.72;3.33;;;14.30;96.70;;;;;;4929689;29;20138;-72
2022/10/31 07:21:51;;;;;;;5.32;3.30;;;14.30;96.70;;;;;;4913073;28;20055;-72
2022/10/31 07:24:19;;;;;;;7.72;3.35;;;14.30;96.70;;;;;;4912262;28;20090;-72
2022/10/31 07:27:08;;;;;;;8.80;3.00;;;14.40;96.70;;;;;;4946998;28;20891;-72
2022/10/31 07:29:37;;;;;;;9.10;3.30;;;14.30;96.70;;;;;;4928709;29;20047;-71
2022/10/31 07:32:05;;;;;;;7.82;3.30;;;14.30;96.70;;;;;;4928986;28;20106;-72
2022/10/31 07:34:35;;;;;;;9.18;3.35;;;14.40;96.70;;;;;;4935760;28;20059;-71
2022/10/31 07:37:32;;;;;;;4.68;3.28;;;14.50;96.70;;;;;;4936408;28;20417;-72
2022/10/31 07:40:00;;;;;;;8.52;3.65;;;14.50;96.70;;;;;;4938786;28;20695;-72
2022/10/31 07:42:36;;;;;;;5.90;3.13;;;14.70;96.70;;;;;;4945530;28;20050;-72
2022/10/31 07:45:07;;;;;;;6.70;3.45;;;14.80;96.70;;;;;;4933892;29;20082;-72
2022/10/31 07:48:04;;;;;;;8.25;3.95;;;14.80;96.70;;;;;;4934682;28;20047;-72
2022/10/31 07:50:50;;;;;;;;;;;14.90;96.70;;;;;;4948499;28;20602;-72
2022/10/31 07:53:54;;;;;;;9.55;4.70;;;15.00;96.70;;;;;;4889323;29;19998;-72
2022/10/31 07:56:25;;;;;;;6.45;4.55;;;15.10;96.70;;;;;;4928625;28;20133;-72
2022/10/31 07:58:54;;;;;;;7.05;4.75;;;15.10;96.70;;;;;;4957363;28;20042;-72
2022/10/31 08:01:22;;;;;;;6.55;4.72;;;15.20;96.70;;;;;;4943020;28;20043;-72
2022/10/31 08:04:10;;;;;;;8.18;4.60;;;15.20;96.70;;;;;;4942663;28;20514;-72
2022/10/31 08:07:05;;;;;;;6.60;4.55;;;15.30;96.70;;;;;;4939674;28;20078;-72
2022/10/31 08:09:36;;;;;;;8.00;4.05;;;15.40;96.70;;;;;;4930756;28;20043;-72
2022/10/31 08:12:14;;;;;;;7.88;5.07;;;15.50;96.70;;;;;;4939174;28;20074;-72
2022/10/31 08:14:44;;;;;;;7.70;3.90;;;15.50;96.70;;;;;;4912502;29;20073;-72
2022/10/31 08:17:14;;;;;;;8.88;3.83;;;15.60;96.70;;;;;;4928219;28;20137;-72
2022/10/31 08:19:56;;;;;;;5.07;3.80;;;15.60;96.70;;;;;;4938860;28;20518;-72
2022/10/31 08:22:36;;;;;;;5.97;3.47;;;15.70;96.70;;;;;;4923070;29;20104;-72
2022/10/31 08:25:10;;;;;;;6.93;3.75;;;15.70;96.70;;;;;;4944194;28;20051;-72
2022/10/31 08:27:39;;;;;;;5.07;3.35;;;15.70;96.70;;;;;;4939147;28;20039;-72
2022/10/31 08:30:26;;;;;;;7.07;4.28;;;15.80;96.70;;;;;;4907180;28;20134;-72
2022/10/31 08:33:16;;;;;;;9.80;4.97;;;15.80;96.70;;;;;;4947851;28;20043;-71
2022/10/31 08:36:20;;;;;;;7.05;4.72;;;15.90;96.70;;;;;;4869471;29;20053;-72
2022/10/31 08:38:56;;;;;;;11.05;5.45;;;16.00;96.70;;;;;;4939005;28;20055;-72
2022/10/31 08:41:30;;;;;;;8.82;5.15;;;16.00;96.70;;;;;;4924855;28;20055;-72
2022/10/31 08:43:59;;;;;;;11.77;5.13;;;16.10;96.70;;;;;;4932670;29;20063;-72
2022/10/31 08:46:29;;;;;;;9.20;5.25;;;16.10;96.70;;;;;;4932175;29;20044;-72
2022/10/31 08:48:57;;;;;;;9.85;4.88;;;16.20;96.70;;;;;;4937360;28;20144;-72
2022/10/31 08:51:25;;;;;;;11.10;5.93;;;16.30;96.70;;;;;;4944877;28;20075;-73
2022/10/31 08:53:55;;;;;;;9.27;4.35;;;16.40;96.70;;;;;;4922086;28;20055;-72
2022/10/31 08:56:35;;;;;;;10.45;5.47;;;16.50;96.70;;;;;;4938477;28;20059;-72
2022/10/31 08:59:11;;;;;;;11.02;6.20;;;16.60;96.70;;;;;;4954930;28;20109;-72
2022/10/31 09:02:08;;;;;;;7.80;5.45;;;16.70;96.70;;;;;;4945779;28;20125;-72
2022/10/31 09:04:36;;;;;;;8.77;4.65;;;16.80;96.70;;;;;;4934051;29;20061;-72
2022/10/31 09:07:04;;;;;;;9.35;4.65;;;16.90;96.70;;;;;;4931098;29;20307;-72
2022/10/31 09:09:48;;;;;;;9.07;4.75;;;17.10;96.70;;;;;;4942984;28;20505;-72
2022/10/31 09:12:18;;;;;;;9.20;4.15;;;17.10;96.70;;;;;;4965051;28;20053;-72
2022/10/31 09:15:01;;;;;;;10.32;4.55;;;17.20;96.70;;;;;;4963764;28;20042;-72
2022/10/31 09:17:45;;;;;;;7.88;4.30;;;17.40;96.70;;;;;;4938172;28;20055;-72
2022/10/31 09:20:23;;;;;;;5.97;4.53;;;17.40;96.70;;;;;;4940084;29;20438;-72
2022/10/31 09:22:57;;;;;;;8.43;4.38;;;17.50;96.70;;;;;;4961745;28;20042;-72
2022/10/31 09:25:25;;;;;;;7.47;4.38;;;17.50;96.70;;;;;;4941546;28;20151;-72
2022/10/31 09:28:14;;;;;;;11.68;4.72;;;17.60;96.70;;;;;;4967921;28;20090;-72
2022/10/31 09:30:46;;;;;;;8.38;4.32;;;17.80;96.70;;;;;;4940400;29;20071;-72
2022/10/31 09:33:23;;;;;;;8.45;4.55;;;17.90;96.70;;;;;;4942674;28;20058;-72
2022/10/31 09:36:11;;;;;;;8.00;4.50;;;17.90;96.70;;;;;;4958562;28;20057;-72
2022/10/31 09:38:41;;;;;;;8.00;4.60;;;18.10;96.70;;;;;;4947097;28;20057;-73
2022/10/31 09:41:24;;;;;;;8.00;4.80;;;18.20;96.70;;;;;;4939982;28;20082;-72
2022/10/31 09:44:03;;;;;;;9.60;4.70;;;18.30;96.70;;;;;;4941954;28;20525;-72
2022/10/31 09:46:49;;;;;;;6.47;4.20;;;18.40;96.70;;;;;;4963818;28;20097;-72
2022/10/31 09:49:37;;;;;;;7.35;4.47;;;18.60;96.70;;;;;;4959043;28;20043;-72
2022/10/31 09:52:11;;;;;;;6.43;3.97;;;18.70;96.70;;;;;;4927214;28;20051;-72
2022/10/31 09:54:44;;;;;;;9.07;4.22;;;18.70;96.70;;;;;;4933812;29;20064;-72
2022/10/31 09:57:15;;;;;;;9.85;4.32;;;18.70;96.70;;;;;;4930993;29;20055;-72
2022/10/31 09:59:48;;;;;;;8.77;4.03;;;18.80;96.70;;;;;;4929772;28;20497;-72
2022/10/31 10:02:23;;;;;;;5.72;3.88;;;18.90;96.70;;;;;;4931821;28;20047;-72
2022/10/31 10:04:58;;;;;;;4.90;3.38;;;18.90;96.70;;;;;;4954512;28;20050;-72
2022/10/31 10:07:35;;;;;;;6.55;4.00;;;19.00;96.70;;;;;;4949632;28;20417;-72
2022/10/31 10:10:45;;;;;;;5.75;3.70;;;19.10;96.70;;;;;;4947386;28;20050;-73
2022/10/31 10:14:02;;;;;;;7.85;3.85;;;19.30;96.70;;;;;;4932497;28;20638;-72
2022/10/31 10:16:46;;;;;;;8.55;3.75;;;19.40;96.70;;;;;;4936138;28;20069;-72
2022/10/31 10:19:33;;;;;;;7.68;3.17;;;19.40;96.70;;;;;;4951517;28;20050;-72
2022/10/31 10:22:12;;;;;;;8.25;3.75;;;19.50;96.70;;;;;;4945147;28;20135;-72
2022/10/31 10:24:55;;;;;;;7.35;2.92;;;19.70;96.70;;;;;;4935827;28;20047;-74
2022/10/31 10:27:36;;;;;;;8.07;3.78;;;19.80;96.70;;;;;;4947826;28;20122;-72
2022/10/31 10:30:13;;;;;;;4.97;3.10;;;19.80;96.70;;;;;;4962768;28;20046;-72
2022/10/31 10:32:45;;;;;;;6.90;3.70;;;19.90;96.70;;;;;;4941446;28;20039;-71
2022/10/31 10:35:24;;;;;;;9.05;4.25;;;20.00;96.70;;;;;;4915648;29;20055;-73
2022/10/31 10:37:59;;;;;;;5.45;3.30;;;20.10;96.70;;;;;;4946772;28;20051;-72
2022/10/31 10:40:29;;;;;;;6.20;3.25;;;20.20;96.70;;;;;;4943306;28;20069;-71
2022/10/31 10:43:22;;;;;;;4.85;3.30;;;20.40;96.70;;;;;;4954845;28;20387;-72
2022/10/31 10:49:24;;;;;;;5.28;3.10;;;20.60;96.70;;;;;;4931741;28;20047;-72
2022/10/31 10:52:01;;;;;;;8.63;3.15;;;20.60;96.70;;;;;;4958747;28;20039;-71
2022/10/31 10:55:00;;;;;;;5.20;3.33;;;20.60;96.70;;;;;;4913703;29;20552;-72
2022/10/31 10:57:38;;;;;;;6.75;2.97;;;20.70;96.70;;;;;;4949416;28;20167;-72
2022/10/31 11:00:19;;;;;;;5.95;2.90;;;20.90;96.70;;;;;;4959280;28;20051;-71
2022/10/31 11:02:48;;;;;;;6.57;2.97;;;21.00;96.70;;;;;;4955766;28;20054;-73
2022/10/31 11:05:23;;;;;;;4.28;3.20;;;21.20;96.70;;;;;;4914722;29;20058;-72
2022/10/31 11:07:51;;;;;;;5.50;3.45;;;21.20;96.70;;;;;;4939591;28;20059;-72
2022/10/31 11:10:20;;;;;;;6.22;3.20;;;21.20;96.70;;;;;;4928591;28;20055;-72
2022/10/31 11:13:04;;;;;;;7.53;2.95;;;21.30;96.70;;;;;;4929805;29;20039;-72
2022/10/31 11:15:36;;;;;;;6.13;3.28;;;21.50;96.70;;;;;;4929135;29;20043;-72
2022/10/31 11:18:05;;;;;;;6.78;3.40;;;21.60;96.70;;;;;;4931621;28;20057;-72
2022/10/31 11:20:35;;;;;;;4.45;2.97;;;21.70;96.70;;;;;;4943751;28;20053;-72
2022/10/31 11:23:15;;;;;;;6.60;3.03;;;21.80;96.70;;;;;;4955622;28;20133;-72
2022/10/31 11:25:51;;;;;;;5.75;2.90;;;21.90;96.70;;;;;;4947514;28;20058;-72
2022/10/31 11:28:19;;;;;;;7.40;3.00;;;22.00;96.70;;;;;;4954024;28;20142;-72
2022/10/31 11:30:50;;;;;;;8.35;3.30;;;22.20;96.70;;;;;;4946130;28;20043;-72
2022/10/31 11:33:22;;;;;;;6.07;3.30;;;22.30;96.70;;;;;;4935341;28;20053;-73
2022/10/31 11:35:52;;;;;;;10.18;3.80;;;22.40;96.70;;;;;;4934881;29;20043;-72
2022/10/31 11:38:30;;;;;;;5.50;2.83;;;22.60;96.70;;;;;;4959321;28;20051;-72
2022/10/31 11:41:06;;;;;;;4.75;3.30;;;22.80;96.70;;;;;;4936221;28;20065;-72
2022/10/31 11:43:34;;;;;;;5.13;3.13;;;22.90;96.70;;;;;;4943869;28;20043;-72
2022/10/31 11:46:15;;;;;;;6.18;3.15;;;22.90;96.70;;;;;;4937150;28;21997;-72
2022/10/31 11:48:48;;;;;;;8.30;3.80;;;23.00;96.70;;;;;;4947374;28;20580;-73
2022/10/31 11:51:22;;;;;;;7.05;3.42;;;23.10;96.70;;;;;;4946192;28;20101;-73
2022/10/31 11:53:55;;;;;;;4.75;2.83;;;23.20;96.70;;;;;;4929006;28;20074;-73
2022/10/31 11:56:39;;;;;;;6.45;3.38;;;23.30;96.70;;;;;;4943621;28;20505;-73
2022/10/31 11:59:19;;;;;;;6.47;3.53;;;23.40;96.70;;;;;;4927799;28;20529;-73
2022/10/31 12:01:49;;;;;;;5.45;3.22;;;23.60;96.70;;;;;;4923690;29;20051;-74
2022/10/31 12:04:17;;;;;;;9.70;3.63;;;23.60;96.70;;;;;;4929161;29;20047;-73
2022/10/31 12:06:47;;;;;;;8.05;3.60;;;23.60;96.70;;;;;;4948903;28;20418;-73
2022/10/31 12:09:22;;;;;;;5.22;3.58;;;23.50;96.70;;;;;;4948998;28;20070;-73
2022/10/31 12:12:16;;;;;;;5.30;3.10;;;23.60;96.70;;;;;;4945006;28;20078;-73
2022/10/31 12:14:55;;;;;;;6.38;2.80;;;23.60;96.70;;;;;;4952500;28;20124;-73
2022/10/31 12:17:29;;;;;;;5.03;3.00;;;23.70;96.70;;;;;;4924388;28;20055;-73
2022/10/31 12:20:05;;;;;;;6.63;3.13;;;23.70;96.70;;;;;;4932486;28;20585;-73
2022/10/31 12:22:42;;;;;;;4.72;2.78;;;23.70;96.70;;;;;;4958899;28;20047;-74
2022/10/31 12:25:21;;;;;;;5.57;3.05;;;23.70;96.70;;;;;;4950501;28;20082;-73
2022/10/31 12:28:07;;;;;;;6.78;3.00;;;23.70;96.70;;;;;;4945652;28;20122;-73
2022/10/31 12:30:47;;;;;;;5.95;3.95;;;23.90;96.70;;;;;;4944291;28;20442;-73
2022/10/31 12:33:45;;;;;;;7.20;2.75;;;23.90;96.70;;;;;;4946752;28;20459;-73
2022/10/31 12:36:32;;;;;;;6.18;3.08;;;24.00;96.70;;;;;;4926957;29;20055;-73
2022/10/31 12:39:24;;;;;;;4.53;3.00;;;24.10;96.70;;;;;;4929667;28;20054;-73
2022/10/31 12:41:58;;;;;;;9.40;2.95;;;24.10;96.70;;;;;;4957771;28;20565;-74
2022/10/31 12:44:54;;;;;;;4.20;3.13;;;24.10;96.70;;;;;;4952042;28;20469;-73
2022/10/31 12:47:55;;;;;;;6.07;3.20;;;24.00;96.70;;;;;;4940283;29;20083;-73
2022/10/31 12:50:34;;;;;;;4.78;2.67;;;23.90;96.70;;;;;;4925646;28;20055;-74
2022/10/31 12:53:19;;;;;;;5.95;3.00;;;23.90;96.70;;;;;;4912488;29;20059;-73
2022/10/31 12:55:59;;;;;;;6.20;3.17;;;23.90;96.70;;;;;;4963758;28;20050;-73
2022/10/31 12:58:31;;;;;;;8.68;3.15;;;24.10;96.70;;;;;;4930504;28;20542;-73
2022/10/31 13:01:09;;;;;;;4.63;3.10;;;24.20;96.70;;;;;;4958373;28;20612;-73
2022/10/31 13:03:46;;;;;;;6.13;3.00;;;24.30;96.70;;;;;;4949150;28;20046;-73
2022/10/31 13:06:19;;;;;;;5.15;3.03;;;24.30;96.70;;;;;;4920817;28;20184;-74
2022/10/31 13:08:52;;;;;;;4.95;3.03;;;24.30;96.70;;;;;;4928476;29;20462;-73
2022/10/31 13:11:23;;;;;;;8.60;3.85;;;24.50;96.70;;;;;;4927792;29;20137;-73
2022/10/31 13:13:59;;;;;;;6.85;3.13;;;24.50;96.70;;;;;;4936231;28;20054;-73
2022/10/31 13:16:30;;;;;;;;;;;24.60;96.70;;;;;;4923961;28;20054;-73
2022/10/31 13:19:11;;;;;;;6.03;3.47;;;24.60;96.70;;;;;;4941907;28;19925;-73
2022/10/31 13:21:45;;;;;;;5.40;3.17;;;24.60;96.70;;;;;;4948670;28;20051;-72
2022/10/31 13:24:16;;;;;;;5.88;3.45;;;24.60;96.70;;;;;;4934310;28;20051;-72
2022/10/31 13:26:48;;;;;;;6.15;3.60;;;24.70;96.70;;;;;;4948615;28;20043;-72
2022/10/31 13:29:21;;;;;;;6.32;3.40;;;24.60;96.70;;;;;;4937500;28;20054;-72
2022/10/31 13:31:55;;;;;;;6.43;3.17;;;24.60;96.70;;;;;;4957643;28;20061;-73
2022/10/31 13:34:27;;;;;;;6.45;3.45;;;24.60;96.70;;;;;;4950240;28;20039;-72